Airfield :
LOGIN :

Register | Disclaimer

   EN    FR    IT 

 










Legend :    VFR   Marginal VFR   IFR   Intensive IFR   Very Intensive IFR
Visi :
Ceiling :
>= 8 km
>= 3000ft
5 to 8 km
1000 to 3000 ft
1500m to 5 km
500 to 1000 ft
800 to 1500m
200 to 500 ft
< 800m
< 200 ft
Symbols :   Thunderstorms  Fog  Heavy snow  Heavy precipitations  Wind > 20 kt
SIGMETs :     Misc.  Thunderstorms  Icing  Turbulence  Mountain Waves  Volcanic Ashes







- Airport Elevation : 512 ft
- IATA code : URO
- Download approach charts


LFOP - Rouen Vallée de Seine

CURRENT METAR :
  • 180700Z AUTO 27018KT 250V310 9999 BKN011 BKN019 OVC025 10/08 Q1003 BECMG 27025G40KT SCT030

EXPIRED METARs :
  • 180630Z AUTO 26020KT 220V280 9999 OVC009 10/09 Q1003 BECMG 27025G40KT SCT030
  • 180600Z AUTO 25022G35KT 9999 -DZ OVC008 10/09 Q1003 TEMPO 4000 RA BECMG SCT030
  • 180530Z AUTO 25022KT 6000 -DZ OVC009 09/09 Q1003 TEMPO 4000 RA BECMG 27025G40KT SCT030
  • 180500Z AUTO 24024KT 9999 OVC010 09/08 Q1003
  • 180430Z AUTO 24026KT 9999 OVC012 09/08 Q1003

TAF TAF LFOP
Valid from the 18 at 06:00 until the 19 at 06:00 UTC


180500Z 1806/1906 24025G40KT 9999 OVC013
TEMPO 1806/1807 4000 RA OVC008
FM180700 27025G40KT 9999 SCT030
BECMG 1811/1813 29015G25KT
TEMPO 1817/1906 4000 SHRA BKN013CB
BECMG 1820/1822 26010KT
ATIS : +33 2 35 80 80 34
Met : +33 2 32 86 52 80
No reported NOTAMs for that airfield.
3 SIGMETs reported for the Paris FIR (LFFF) :
 
Severe turbulence
LFFF SIGMET 4 VALID 180600/180900 LFPW
LFFF PARIS FIR/UIR SEV TURB FCST NW OF LINE N4745 E00445 - N4715 W00015 SFC/FL060 STNR NC=
SIGMET 2  cancelation
LFFF SIGMET 3 VALID 180445/180900 LFPW
LFFF PARIS FIR/UIR CNL SIGMET 2 180500/180900=
SIGMET 2  CANCELED :
Severe turbulence
LFFF SIGMET 2 VALID 180500/180900 LFPW
LFFF PARIS FIR/UIR SEV TURB FCST WI N5000 E00500 - N4930 E00600 - N4900 E00445 - N4830 E00530 - N4730 E00415 - N4700 E00430 - N4700 E00400 - N5000 E00500 SFC/FL060 STNR INTSF=



MET'MAP, your aeronautical weather chart ! - Copyright ORBIFLY December 2007 - Disclaimer

ORBIFLY MET'MAP TEAM :

Programming & Development : Alexandra Zaïnal
Concept & Development : Baudouin d'Aumeries
Co-Development & Prog : Marc-Olivier Méhu
Technical & hardware support : Manuel Goepfert

Contact : metmap@orbifly.com




SOURCES & CREDITS :

   NOAA